Time;durP1;ratioP1;P1;durP2;ratioP2;P2;SDS_P1;SDS_P2;PMS_P1;PMS_P2;Temp;Humidity;BMP_temperature;BMP_pressure;BME280_temperature;BME280_humidity;BME280_pressure;Samples;Min_cycle;Max_cycle;Signal;HPM_P1;HPM_P2
2022/05/17 00:00:31;;;;;;;11.27;4.70;;;;;;;13.20;68.99;100470.49;1433856;90;22568;-83
2022/05/17 00:02:58;;;;;;;8.43;4.60;;;;;;;13.23;68.14;100471.99;1420827;90;21652;-83
2022/05/17 00:05:24;;;;;;;8.90;4.70;;;;;;;13.26;68.08;100475.21;1392557;90;22404;-82
2022/05/17 00:07:50;;;;;;;11.23;3.90;;;;;;;13.33;68.46;100473.22;1441096;90;21457;-82
2022/05/17 00:10:16;;;;;;;12.63;4.37;;;;;;;13.35;69.05;100469.41;1429487;90;21563;-83
2022/05/17 00:12:43;;;;;;;9.97;4.67;;;;;;;13.31;68.70;100458.25;1415526;90;21647;-82
2022/05/17 00:15:10;;;;;;;7.23;4.03;;;;;;;13.30;67.78;100459.77;1406024;91;21542;-80
2022/05/17 00:17:37;;;;;;;11.07;4.20;;;;;;;13.31;69.29;100459.58;1412201;91;21526;-83
2022/05/17 00:20:04;;;;;;;10.17;4.33;;;;;;;13.23;68.94;100462.19;1446522;89;21504;-83
2022/05/17 00:22:30;;;;;;;11.87;5.20;;;;;;;13.20;68.60;100465.68;1428628;90;21615;-83
2022/05/17 00:24:56;;;;;;;10.43;5.07;;;;;;;13.18;70.35;100462.38;1441315;90;21501;-83
2022/05/17 00:27:23;;;;;;;7.53;4.17;;;;;;;13.23;70.01;100469.34;1435227;90;22537;-83
2022/05/17 00:29:50;;;;;;;25.43;5.30;;;;;;;13.25;70.22;100459.38;1428502;90;22589;-83
2022/05/17 00:32:16;;;;;;;10.83;4.20;;;;;;;13.28;69.67;100455.09;1430063;90;22651;-83
2022/05/17 00:34:44;;;;;;;13.67;5.17;;;;;;;13.34;69.89;100456.27;1430120;90;21564;-83
2022/05/17 00:37:10;;;;;;;9.33;4.20;;;;;;;13.35;69.21;100457.45;1407481;91;21548;-83
2022/05/17 00:39:36;;;;;;;11.27;4.67;;;;;;;13.34;68.92;100455.77;1405261;91;21601;-83
2022/05/17 00:42:03;;;;;;;9.37;5.07;;;;;;;13.30;69.83;100453.94;1411629;91;21549;-83
2022/05/17 00:44:45;;;;;;;10.63;4.87;;;;;;;13.27;70.16;100448.13;1428202;90;21502;-83
2022/05/17 00:47:29;;;;;;;9.07;5.73;;;;;;;13.23;70.37;100445.42;1405113;91;21681;-84
2022/05/17 00:50:10;;;;;;;8.53;4.60;;;;;;;13.19;70.10;100446.75;1430707;90;21486;-83
2022/05/17 00:52:47;;;;;;;16.20;6.05;;;;;;;13.16;70.10;100443.92;1422833;90;21600;-84
2022/05/17 00:55:31;;;;;;;11.37;5.00;;;;;;;13.13;70.11;100439.44;1428586;91;22773;-81
2022/05/17 00:58:15;;;;;;;10.77;4.30;;;;;;;13.10;69.82;100452.05;1433825;90;21701;-81
2022/05/17 01:01:04;;;;;;;15.60;4.30;;;;;;;13.08;70.39;100453.20;1433161;90;21740;-81
2022/05/17 01:04:03;;;;;;;9.57;4.20;;;;;;;13.04;70.44;100446.57;1410895;90;21722;-81
2022/05/17 01:06:42;;;;;;;7.07;4.27;;;;;;;13.01;70.54;100446.39;1406449;91;21608;-81
2022/05/17 01:09:12;;;;;;;7.90;4.20;;;;;;;12.96;70.55;100448.70;1424799;90;21509;-82
2022/05/17 01:11:39;;;;;;;13.00;4.87;;;;;;;12.91;70.67;100448.85;1396517;92;21675;-82
2022/05/17 01:16:52;;;;;;;15.43;6.10;;;;;;;12.82;69.67;100440.03;1432915;90;22802;-81
2022/05/17 01:19:18;;;;;;;7.63;4.63;;;;;;;12.72;70.41;100439.35;1430464;90;21750;-81
2022/05/17 01:21:45;;;;;;;6.90;4.43;;;;;;;12.67;70.75;100439.00;1430422;90;21494;-81
2022/05/17 01:24:11;;;;;;;14.20;4.73;;;;;;;12.61;70.94;100440.47;1424005;90;22464;-82
2022/05/17 01:26:42;;;;;;;8.90;5.10;;;;;;;12.57;69.88;100435.98;1427309;90;21638;-82
2022/05/17 01:29:11;;;;;;;11.60;4.80;;;;;;;12.49;71.40;100435.95;1427417;90;21556;-84
2022/05/17 01:31:38;;;;;;;12.67;4.63;;;;;;;12.42;70.76;100434.91;1408035;91;21523;-83
2022/05/17 01:34:10;;;;;;;15.70;4.63;;;;;;;12.36;70.69;100435.55;1420309;90;21600;-83
2022/05/17 01:36:39;;;;;;;8.27;5.47;;;;;;;12.28;71.17;100420.91;1428410;90;22463;-84
2022/05/17 01:39:06;;;;;;;7.37;4.37;;;;;;;12.22;71.42;100428.17;1410529;90;21608;-83
2022/05/17 01:41:32;;;;;;;11.00;4.37;;;;;;;12.22;71.24;100426.85;1421926;90;21525;-83
2022/05/17 01:43:59;;;;;;;16.27;5.63;;;;;;;12.21;71.83;100433.16;1434045;90;22538;-83
2022/05/17 01:46:25;;;;;;;5.73;4.30;;;;;;;12.21;72.15;100434.48;1425890;91;22727;-84
2022/05/17 01:48:52;;;;;;;6.67;4.23;;;;;;;12.20;73.35;100433.66;1433879;90;21474;-83
2022/05/17 01:51:20;;;;;;;8.07;4.90;;;;;;;12.22;72.75;100432.16;1404782;92;22561;-83
2022/05/17 01:53:46;;;;;;;8.00;4.80;;;;;;;12.23;73.11;100429.83;1441252;90;21816;-84
2022/05/17 01:56:13;;;;;;;10.90;4.67;;;;;;;12.27;72.38;100432.02;1406192;90;21439;-83
2022/05/17 01:58:39;;;;;;;8.77;5.00;;;;;;;12.32;71.57;100422.27;1441046;90;22419;-82
2022/05/17 02:01:09;;;;;;;12.10;5.03;;;;;;;12.34;71.59;100416.28;1416648;90;21518;-83
2022/05/17 02:03:35;;;;;;;7.62;5.00;;;;;;;12.35;71.56;100416.64;1425326;90;22532;-81
2022/05/17 02:06:03;;;;;;;9.00;4.20;;;;;;;12.37;71.43;100416.82;1418449;91;21696;-81
2022/05/17 02:08:29;;;;;;;7.00;4.10;;;;;;;12.38;71.75;100407.86;1430134;90;21583;-80
2022/05/17 02:10:56;;;;;;;7.00;4.70;;;;;;;12.41;71.20;100410.69;1420190;90;21474;-81
2022/05/17 02:13:22;;;;;;;6.93;4.13;;;;;;;12.45;70.78;100413.34;1435046;90;21755;-83
2022/05/17 02:15:48;;;;;;;8.53;4.50;;;;;;;12.44;71.25;100412.20;1424858;90;21457;-84
2022/05/17 02:18:14;;;;;;;11.07;4.77;;;;;;;12.43;70.80;100412.70;1426678;90;22473;-84
2022/05/17 02:20:41;;;;;;;17.67;4.87;;;;;;;12.42;70.98;100413.67;1399419;90;21457;-83
2022/05/17 02:23:07;;;;;;;7.40;4.60;;;;;;;12.41;71.44;100412.02;1416224;91;21482;-83
2022/05/17 02:25:36;;;;;;;5.57;3.80;;;;;;;12.40;72.10;100419.66;1416530;90;21489;-84
2022/05/17 02:28:05;;;;;;;7.57;3.90;;;;;;;12.38;71.61;100414.50;1425139;91;22370;-84
2022/05/17 02:30:31;;;;;;;19.20;4.70;;;;;;;12.44;71.61;100417.51;1422944;91;21488;-83
2022/05/17 02:32:58;;;;;;;14.63;5.07;;;;;;;12.49;71.90;100421.84;1432098;91;21556;-84
2022/05/17 02:35:24;;;;;;;7.93;4.33;;;;;;;12.50;72.00;100413.70;1424650;91;21770;-84
2022/05/17 02:37:50;;;;;;;8.90;4.00;;;;;;;12.51;71.91;100411.38;1424025;91;21460;-83
2022/05/17 02:40:16;;;;;;;9.10;4.40;;;;;;;12.51;72.41;100416.69;1414059;92;22467;-84
2022/05/17 02:42:43;;;;;;;9.67;4.90;;;;;;;12.49;71.62;100406.75;1402524;91;22185;-82
2022/05/17 02:45:11;;;;;;;8.47;4.07;;;;;;;12.50;71.72;100416.36;1423719;90;21658;-80
2022/05/17 02:47:37;;;;;;;5.27;4.00;;;;;;;12.48;72.47;100410.37;1431172;90;21504;-82
2022/05/17 02:50:04;;;;;;;6.30;4.07;;;;;;;12.49;72.23;100408.08;1408526;90;21609;-81
2022/05/17 02:52:31;;;;;;;8.00;4.40;;;;;;;12.52;72.08;100409.58;1425320;90;21531;-83
2022/05/17 02:54:57;;;;;;;6.77;4.43;;;;;;;12.53;71.74;100409.91;1433333;90;21445;-82
2022/05/17 02:57:23;;;;;;;9.60;4.37;;;;;;;12.53;72.82;100413.38;1436424;90;21652;-83
2022/05/17 02:59:49;;;;;;;10.53;5.30;;;;;;;12.53;72.60;100414.71;1424896;90;23397;-82
2022/05/17 03:02:16;;;;;;;6.40;4.13;;;;;;;12.56;71.66;100418.37;1434491;90;22302;-82
2022/05/17 03:04:42;;;;;;;9.93;4.80;;;;;;;12.61;71.44;100415.25;1422970;90;22503;-82
2022/05/17 03:07:08;;;;;;;10.67;5.10;;;;;;;12.64;72.59;100425.04;1422614;90;21971;-83
2022/05/17 03:09:34;;;;;;;7.60;4.07;;;;;;;12.69;73.44;100425.04;1416861;91;21461;-83
2022/05/17 03:12:02;;;;;;;8.53;3.80;;;;;;;12.72;73.08;100424.75;1438815;90;21539;-85
2022/05/17 03:14:29;;;;;;;11.80;4.33;;;;;;;12.75;72.62;100421.77;1427949;90;21508;-85
2022/05/17 03:16:55;;;;;;;11.03;4.00;;;;;;;12.80;71.71;100416.78;1409343;91;21526;-84
2022/05/17 03:19:22;;;;;;;6.27;4.13;;;;;;;12.85;71.85;100414.47;1400297;92;21557;-84
2022/05/17 03:21:48;;;;;;;7.33;4.03;;;;;;;12.91;71.74;100408.50;1412537;90;21526;-85
2022/05/17 03:24:15;;;;;;;15.67;4.77;;;;;;;12.98;71.54;100408.20;1438034;90;21547;-81
2022/05/17 03:26:41;;;;;;;11.30;3.70;;;;;;;13.03;71.17;100406.36;1422225;90;21711;-82
2022/05/17 03:29:08;;;;;;;7.50;4.97;;;;;;;13.07;70.64;100409.87;1431865;90;21487;-82
2022/05/17 03:31:35;;;;;;;7.47;4.53;;;;;;;13.12;70.46;100408.06;1437263;90;21479;-83
2022/05/17 03:34:02;;;;;;;9.33;4.20;;;;;;;13.13;70.22;100412.37;1437088;90;21671;-84
2022/05/17 03:36:28;;;;;;;10.20;3.70;;;;;;;13.19;70.07;100413.53;1431044;90;21391;-83
2022/05/17 03:38:54;;;;;;;12.27;4.87;;;;;;;13.26;70.08;100414.55;1437976;90;21459;-84
2022/05/17 03:41:20;;;;;;;8.90;4.33;;;;;;;13.36;69.98;100411.25;1411163;90;23673;-84
2022/05/17 03:43:47;;;;;;;12.77;5.10;;;;;;;13.45;69.75;100410.75;1433718;90;21570;-84
2022/05/17 03:46:14;;;;;;;10.10;4.73;;;;;;;13.54;69.57;100409.74;1403238;90;21524;-82
2022/05/17 03:48:40;;;;;;;11.80;4.83;;;;;;;13.62;69.51;100408.91;1437609;90;21629;-80
2022/05/17 03:51:16;;;;;;;9.20;4.67;;;;;;;13.67;68.31;100411.91;1432266;90;21422;-81
2022/05/17 03:53:43;;;;;;;9.23;5.13;;;;;;;13.70;68.05;100411.57;1424414;90;21636;-81
2022/05/17 03:56:09;;;;;;;9.03;5.17;;;;;;;13.75;68.02;100416.72;1430096;90;21472;-81
2022/05/17 03:58:36;;;;;;;8.10;4.13;;;;;;;13.80;67.89;100412.20;1430474;90;21451;-80
2022/05/17 04:01:03;;;;;;;12.73;5.47;;;;;;;13.84;67.92;100415.34;1423116;90;21655;-80
2022/05/17 04:03:30;;;;;;;11.67;5.23;;;;;;;13.88;68.29;100420.17;1428771;91;21452;-83
2022/05/17 04:05:56;;;;;;;26.03;6.87;;;;;;;13.90;68.89;100415.53;1441117;90;22591;-82
2022/05/17 04:08:23;;;;;;;8.53;4.27;;;;;;;13.93;69.05;100416.52;1426024;90;21554;-82
2022/05/17 04:10:49;;;;;;;14.93;5.50;;;;;;;13.99;68.91;100415.83;1428625;90;21479;-82
2022/05/17 04:13:15;;;;;;;8.50;4.10;;;;;;;14.07;69.22;100415.47;1409969;91;22435;-82
2022/05/17 04:15:42;;;;;;;9.03;4.50;;;;;;;14.12;68.19;100411.80;1415983;90;21482;-82
2022/05/17 04:18:09;;;;;;;12.47;4.63;;;;;;;14.18;68.11;100413.77;1428781;90;21677;-79
2022/05/17 04:20:36;;;;;;;9.50;5.40;;;;;;;14.27;68.00;100411.91;1441210;90;23430;-79
2022/05/17 04:23:03;;;;;;;8.80;4.60;;;;;;;14.30;67.30;100415.08;1421018;90;21575;-77
2022/05/17 04:25:29;;;;;;;13.20;4.23;;;;;;;14.31;66.95;100416.73;1423130;90;21610;-78
2022/05/17 04:27:56;;;;;;;11.60;4.37;;;;;;;14.29;66.35;100417.40;1432080;90;21634;-79
2022/05/17 04:30:23;;;;;;;12.43;5.00;;;;;;;14.28;66.54;100414.42;1429874;90;21445;-80
2022/05/17 04:32:50;;;;;;;13.40;4.23;;;;;;;14.31;66.66;100419.39;1444637;90;22633;-80
2022/05/17 04:35:18;;;;;;;13.00;4.33;;;;;;;14.33;67.34;100408.08;1426808;90;21652;-79
2022/05/17 04:37:45;;;;;;;10.00;4.47;;;;;;;14.34;66.73;100403.08;1429174;90;21510;-79
2022/05/17 04:40:13;;;;;;;9.87;3.73;;;;;;;14.36;66.29;100407.73;1440335;90;21643;-79
2022/05/17 04:42:43;;;;;;;9.50;4.70;;;;;;;14.35;66.07;100404.72;1436886;90;21672;-79
2022/05/17 04:45:13;;;;;;;8.98;3.72;;;;;;;14.37;65.42;100406.72;1432494;90;21531;-78
2022/05/17 04:47:44;;;;;;;9.47;3.87;;;;;;;14.45;65.69;100398.70;1445697;90;22410;-81
2022/05/17 04:50:12;;;;;;;21.43;5.10;;;;;;;14.52;65.60;100399.37;1425311;90;21659;-79
2022/05/17 04:52:38;;;;;;;14.47;4.17;;;;;;;14.57;65.75;100396.52;1434430;89;22427;-80
2022/05/17 04:55:07;;;;;;;14.07;4.30;;;;;;;14.66;66.01;100389.30;1450243;90;21590;-81
2022/05/17 04:57:35;;;;;;;15.93;4.77;;;;;;;14.73;66.65;100388.95;1429024;90;21555;-81
2022/05/17 05:00:08;;;;;;;17.47;6.17;;;;;;;14.82;66.58;100391.89;1423689;90;21512;-82
2022/05/17 05:02:35;;;;;;;22.00;5.60;;;;;;;14.84;65.33;100394.36;1430701;90;21516;-81
2022/05/17 05:05:02;;;;;;;31.27;5.40;;;;;;;14.93;66.09;100397.29;1424927;90;21459;-81
2022/05/17 05:07:28;;;;;;;13.50;4.70;;;;;;;15.02;65.48;100392.77;1436340;90;22016;-81
2022/05/17 05:09:54;;;;;;;15.03;4.10;;;;;;;15.13;65.56;100392.32;1424520;90;21450;-82
2022/05/17 05:12:20;;;;;;;9.07;4.03;;;;;;;15.17;64.19;100389.64;1432114;90;21681;-81
2022/05/17 05:14:46;;;;;;;9.53;4.10;;;;;;;15.30;64.11;100395.19;1427351;90;22524;-80
2022/05/17 05:17:13;;;;;;;16.97;5.20;;;;;;;15.46;64.30;100401.41;1433470;90;21531;-81
2022/05/17 05:19:40;;;;;;;9.30;4.27;;;;;;;15.60;64.06;100388.61;1425160;90;21555;-81
2022/05/17 05:22:06;;;;;;;11.90;4.10;;;;;;;15.77;63.68;100391.47;1429693;90;23035;-81
2022/05/17 05:24:32;;;;;;;74.43;7.57;;;;;;;15.86;62.68;100391.40;1428860;90;21496;-82
2022/05/17 05:27:00;;;;;;;13.40;4.30;;;;;;;15.97;62.52;100397.11;1435756;90;21600;-81
2022/05/17 05:29:26;;;;;;;20.57;4.60;;;;;;;16.04;62.21;100397.19;1428449;90;21523;-80
2022/05/17 05:31:53;;;;;;;12.53;4.10;;;;;;;16.16;62.03;100388.21;1439732;90;22106;-92
2022/05/17 05:34:19;;;;;;;11.97;4.73;;;;;;;16.26;61.26;100391.95;1432037;90;22693;-91
2022/05/17 05:36:46;;;;;;;9.20;4.07;;;;;;;16.38;61.46;100390.45;1432081;90;21617;-92
2022/05/17 05:39:13;;;;;;;8.90;4.03;;;;;;;16.50;61.46;100392.97;1413848;91;21545;-80
2022/05/17 05:41:39;;;;;;;7.77;3.90;;;;;;;16.61;61.62;100385.80;1431456;90;22340;-81
2022/05/17 05:44:05;;;;;;;6.37;3.57;;;;;;;16.62;60.21;100390.13;1434187;89;21757;-80
2022/05/17 05:46:31;;;;;;;14.37;3.83;;;;;;;16.72;60.38;100389.02;1440131;90;22300;-81
2022/05/17 05:48:58;;;;;;;13.37;5.07;;;;;;;16.82;60.77;100390.89;1436743;90;22438;-83
2022/05/17 05:51:24;;;;;;;9.77;4.30;;;;;;;16.87;60.41;100387.15;1433684;90;21523;-81
2022/05/17 05:53:51;;;;;;;16.43;4.13;;;;;;;16.93;60.04;100393.58;1433889;90;21474;-81
2022/05/17 05:56:17;;;;;;;14.93;4.60;;;;;;;16.90;59.64;100400.95;1422693;90;22525;-79
2022/05/17 05:58:43;;;;;;;9.20;4.53;;;;;;;16.85;59.25;100400.69;1423712;90;22990;-80
2022/05/17 06:01:10;;;;;;;6.97;4.10;;;;;;;16.84;59.84;100399.05;1435770;90;21622;-80
2022/05/17 06:03:37;;;;;;;10.07;4.27;;;;;;;16.86;60.06;100404.19;1428016;89;21451;-78
2022/05/17 06:06:04;;;;;;;12.57;4.47;;;;;;;16.86;60.04;100399.69;1425364;89;22369;-78
2022/05/17 06:08:30;;;;;;;11.63;4.17;;;;;;;16.86;60.28;100397.50;1438821;90;22638;-79
2022/05/17 06:10:58;;;;;;;6.77;3.90;;;;;;;16.83;59.71;100401.89;1434975;90;21444;-78
2022/05/17 06:13:24;;;;;;;10.20;4.43;;;;;;;16.86;60.53;100395.69;1428970;90;21592;-79
2022/05/17 06:15:52;;;;;;;11.53;5.03;;;;;;;16.94;60.87;100394.71;1407259;90;21553;-79
2022/05/17 06:18:19;;;;;;;18.07;4.93;;;;;;;17.03;60.59;100396.27;1429503;90;21635;-79
2022/05/17 06:20:53;;;;;;;14.43;4.70;;;;;;;17.12;60.91;100392.45;1429190;90;22634;-78
2022/05/17 06:23:21;;;;;;;15.40;5.30;;;;;;;17.19;60.80;100397.03;1422629;91;21666;-79
2022/05/17 06:25:47;;;;;;;12.30;5.37;;;;;;;17.24;60.10;100399.96;1430461;90;21607;-79
2022/05/17 06:28:13;;;;;;;10.60;4.37;;;;;;;17.30;59.93;100401.86;1426644;90;21577;-78
2022/05/17 06:30:42;;;;;;;14.93;5.40;;;;;;;17.37;59.42;100401.39;1398702;91;22404;-78
2022/05/17 06:33:15;;;;;;;9.60;5.50;;;;;;;17.43;59.44;100401.96;1434753;89;21495;-78
2022/05/17 06:35:44;;;;;;;12.27;5.20;;;;;;;17.55;59.09;100403.11;1430956;90;21733;-78
2022/05/17 06:38:12;;;;;;;13.77;5.17;;;;;;;17.67;59.00;100407.42;1437028;90;21532;-78
2022/05/17 06:40:38;;;;;;;9.73;5.50;;;;;;;17.80;58.76;100409.38;1404241;90;21437;-78
2022/05/17 06:43:05;;;;;;;12.87;4.97;;;;;;;17.94;58.19;100408.45;1380220;89;21442;-78
2022/05/17 06:45:49;;;;;;;17.93;5.40;;;;;;;18.10;57.72;100413.20;1396387;90;21525;-78
2022/05/17 06:48:34;;;;;;;16.10;6.47;;;;;;;18.18;56.49;100417.03;1387460;90;21378;-78
2022/05/17 06:51:05;;;;;;;13.87;5.70;;;;;;;18.32;56.13;100422.77;1398931;90;21428;-79
2022/05/17 06:53:31;;;;;;;19.83;5.67;;;;;;;18.43;56.02;100416.86;1379103;90;21501;-80
2022/05/17 06:55:58;;;;;;;9.50;5.30;;;;;;;18.54;55.91;100415.98;1372814;90;21452;-79
2022/05/17 06:58:28;;;;;;;11.33;6.07;;;;;;;18.63;55.37;100420.14;1389572;90;21435;-80
2022/05/17 07:00:55;;;;;;;11.95;6.25;;;;;;;18.69;55.16;100421.50;1390063;90;21393;-79
2022/05/17 07:03:22;;;;;;;11.10;5.40;;;;;;;18.74;54.40;100410.22;1382808;90;21549;-79
2022/05/17 07:05:49;;;;;;;11.27;6.77;;;;;;;18.78;54.09;100407.42;1384960;90;21503;-79
2022/05/17 07:08:15;;;;;;;17.03;7.37;;;;;;;18.78;53.87;100404.75;1338223;91;22355;-79
2022/05/17 07:13:25;;;;;;;12.90;6.17;;;;;;;18.80;54.49;100401.88;1359198;90;21414;-79
2022/05/17 07:15:53;;;;;;;14.20;5.80;;;;;;;18.78;54.05;100399.91;1358264;91;21489;-79
2022/05/17 07:18:23;;;;;;;14.27;6.23;;;;;;;18.77;53.99;100399.09;1365755;90;21560;-79
2022/05/17 07:20:49;;;;;;;13.40;6.43;;;;;;;18.85;54.33;100392.20;1390744;90;21383;-79
2022/05/17 07:23:17;;;;;;;12.43;6.60;;;;;;;19.00;54.31;100396.56;1392962;90;21430;-78
2022/05/17 07:25:46;;;;;;;15.53;5.90;;;;;;;19.15;54.11;100395.34;1371224;90;21431;-78
2022/05/17 07:28:22;;;;;;;16.73;5.87;;;;;;;19.24;53.10;100397.83;1353889;90;22599;-78
2022/05/17 07:30:47;;;;;;;23.40;6.00;;;;;;;19.36;53.83;100397.03;1353806;90;21725;-79
2022/05/17 07:33:14;;;;;;;12.20;5.67;;;;;;;19.42;51.94;100402.09;1379806;90;21406;-79
2022/05/17 07:35:41;;;;;;;15.75;5.22;;;;;;;19.62;52.44;100403.39;1425825;90;22449;-78
2022/05/17 07:38:08;;;;;;;10.82;5.17;;;;;;;19.84;52.26;100402.70;1437707;90;21509;-78
2022/05/17 07:40:34;;;;;;;13.05;5.83;;;;;;;20.01;52.25;100397.70;1432002;90;21553;-79
2022/05/17 07:43:00;;;;;;;8.70;5.75;;;;;;;20.31;51.26;100398.55;1432732;90;21511;-79
2022/05/17 07:45:27;;;;;;;9.23;5.60;;;;;;;20.57;50.96;100401.19;1419404;91;23411;-79
2022/05/17 07:47:53;;;;;;;27.10;17.65;;;;;;;20.84;49.96;100395.66;1428383;90;21511;-79
2022/05/17 07:50:19;;;;;;;11.57;8.40;;;;;;;21.12;49.59;100403.36;1424934;90;21548;-79
2022/05/17 07:52:45;;;;;;;10.45;6.72;;;;;;;21.34;48.73;100395.72;1424138;90;21764;-80
2022/05/17 07:55:14;;;;;;;13.53;5.22;;;;;;;21.33;46.60;100402.16;1427999;90;21670;-79
2022/05/17 07:57:40;;;;;;;12.43;6.97;;;;;;;21.39;47.48;100385.16;1423854;90;21585;-79
2022/05/17 08:00:08;;;;;;;17.82;6.10;;;;;;;21.52;47.67;100394.48;1427087;90;22367;-79
2022/05/17 08:02:34;;;;;;;12.23;6.10;;;;;;;21.53;47.06;100388.57;1426987;90;21658;-79
2022/05/17 08:05:26;;;;;;;14.98;8.15;;;;;;;21.53;46.89;100386.70;1437235;90;21548;-79
2022/05/17 08:07:53;;;;;;;11.43;5.30;;;;;;;21.65;47.49;100388.67;1428878;90;22247;-79
2022/05/17 08:10:20;;;;;;;16.45;5.35;;;;;;;21.76;46.95;100381.21;1428915;90;21601;-79
2022/05/17 08:12:47;;;;;;;15.90;6.53;;;;;;;21.74;46.56;100376.56;1413113;90;22815;-79
2022/05/17 08:15:33;;;;;;;12.40;5.53;;;;;;;21.78;46.37;100377.25;1442698;90;22064;-79
2022/05/17 08:18:04;;;;;;;11.63;5.85;;;;;;;21.89;46.31;100370.81;1438818;90;22428;-79
2022/05/17 08:20:32;;;;;;;19.65;6.05;;;;;;;21.94;45.37;100374.48;1428435;90;21508;-80
2022/05/17 08:22:58;;;;;;;16.77;6.50;;;;;;;21.88;46.16;100374.03;1431902;90;21509;-80
2022/05/17 08:28:11;;;;;;;20.12;7.75;;;;;;;21.76;46.58;100367.22;1441807;90;21481;-80
2022/05/17 08:30:38;;;;;;;11.50;6.20;;;;;;;21.74;47.29;100363.91;1436734;90;21467;-80
2022/05/17 08:33:15;;;;;;;15.18;8.45;;;;;;;21.66;46.63;100369.58;1429888;90;22407;-81
2022/05/17 08:35:55;;;;;;;9.63;6.42;;;;;;;21.68;47.35;100371.54;1423873;90;23310;-81
2022/05/17 08:38:30;;;;;;;8.13;5.45;;;;;;;21.74;47.26;100368.48;1434460;90;22494;-80
2022/05/17 08:41:23;;;;;;;17.77;5.95;;;;;;;21.81;46.78;100361.99;1424610;90;21442;-80
2022/05/17 08:44:06;;;;;;;9.08;5.42;;;;;;;21.80;46.27;100368.41;1426332;90;21451;-80
2022/05/17 08:47:11;;;;;;;9.70;5.75;;;;;;;21.82;46.59;100369.02;1432649;90;23385;-81
2022/05/17 08:49:56;;;;;;;19.55;5.80;;;;;;;21.79;46.63;100366.77;1413523;90;21537;-80
2022/05/17 08:52:26;;;;;;;18.92;5.85;;;;;;;21.94;46.78;100369.63;1429330;90;21608;-81
2022/05/17 08:55:19;;;;;;;19.87;6.12;;;;;;;21.94;46.78;100369.63;1431063;90;21523;-80
2022/05/17 08:57:53;;;;;;;12.80;5.87;;;;;;;22.17;46.50;100332.56;1429395;90;21658;-81
2022/05/17 09:00:27;;;;;;;24.92;6.53;;;;;;;22.38;45.93;100367.16;1424500;90;21850;-80
2022/05/17 09:03:28;;;;;;;13.80;5.80;;;;;;;22.57;45.75;100364.45;1425290;90;21607;-80
2022/05/17 09:06:09;;;;;;;10.58;5.62;;;;;;;22.81;45.93;100355.37;1421582;90;22520;-88
2022/05/17 09:08:56;;;;;;;15.00;5.20;;;;;;;23.27;45.10;100349.81;1382606;93;22444;-88
2022/05/17 09:11:57;;;;;;;11.38;4.97;;;;;;;23.62;44.52;100346.30;1434480;90;21531;-88
2022/05/17 09:14:31;;;;;;;13.72;5.60;;;;;;;23.80;43.55;100342.16;1439982;90;21562;-88
2022/05/17 09:17:19;;;;;;;10.45;5.12;;;;;;;24.03;43.84;100346.70;1433010;90;21510;-88
2022/05/17 09:19:49;;;;;;;18.45;5.72;;;;;;;24.18;43.49;100342.67;1440189;90;21538;-88
2022/05/17 09:22:16;;;;;;;14.58;5.85;;;;;;;24.08;42.27;100344.63;1431287;90;21554;-88
2022/05/17 09:24:46;;;;;;;51.85;7.50;;;;;;;24.04;42.68;100353.75;1440507;90;21482;-87
2022/05/17 09:27:24;;;;;;;12.00;4.95;;;;;;;24.12;42.45;100349.86;1431671;90;21554;-87
2022/05/17 09:29:55;;;;;;;8.95;4.90;;;;;;;24.12;42.39;100349.86;1437781;90;22446;-87
2022/05/17 09:32:33;;;;;;;11.78;4.20;;;;;;;23.89;41.66;100347.20;1437695;89;21525;-87
2022/05/17 09:35:04;;;;;;;9.38;5.22;;;;;;;23.70;42.02;100336.52;1434890;90;21475;-87
2022/05/17 09:37:36;;;;;;;13.90;4.90;;;;;;;23.69;42.96;100340.27;1420378;90;21563;-87
2022/05/17 09:40:07;;;;;;;10.65;5.10;;;;;;;23.59;42.88;100337.31;1425476;90;21503;-88
2022/05/17 09:43:01;;;;;;;11.28;6.87;;;;;;;23.57;43.60;100340.27;1434205;89;23416;-86
2022/05/17 09:45:55;;;;;;;12.30;5.35;;;;;;;23.61;43.51;100339.27;1428600;89;21466;-92
2022/05/17 09:54:39;;;;;;;10.63;5.55;;;;;;;23.70;43.48;100336.52;1405417;92;21578;-92
2022/05/17 09:57:14;;;;;;;9.60;5.08;;;;;;;23.78;43.30;100334.81;1402421;92;21467;-91
2022/05/17 09:59:43;;;;;;;9.23;4.83;;;;;;;23.86;43.79;100331.75;1405007;92;21578;-91
2022/05/17 10:02:32;;;;;;;8.55;4.90;;;;;;;23.86;43.52;100328.23;1404017;92;21702;-90
2022/05/17 10:05:02;;;;;;;9.90;5.47;;;;;;;23.92;43.10;100330.52;1415599;90;21430;-90
2022/05/17 10:07:30;;;;;;;19.50;4.90;;;;;;;23.91;42.21;100328.85;1429809;90;22540;-92
2022/05/17 10:09:57;;;;;;;9.20;5.17;;;;;;;23.94;42.56;100322.97;1428223;90;21520;-92
2022/05/17 10:12:33;;;;;;;7.37;4.90;;;;;;;23.98;42.72;100320.10;1441175;90;22597;-91
2022/05/17 10:15:12;;;;;;;7.33;4.05;;;;;;;23.97;41.84;100319.28;1432066;90;23185;-92
2022/05/17 10:17:51;;;;;;;5.87;4.10;;;;;;;23.88;41.43;100316.66;1429573;90;21652;-91
2022/05/17 10:20:23;;;;;;;11.53;4.22;;;;;;;23.72;41.57;100302.53;1378038;93;21651;-92
2022/05/17 10:23:10;;;;;;;17.17;5.42;;;;;;;23.76;41.67;100314.48;1374031;93;21631;-93
2022/05/17 10:25:56;;;;;;;9.80;4.67;;;;;;;23.73;41.66;100319.83;1376766;92;21539;-93
2022/05/17 10:28:46;;;;;;;8.90;4.87;;;;;;;23.57;41.18;100317.84;1371857;93;21563;-93
2022/05/17 10:31:23;;;;;;;9.93;4.28;;;;;;;23.39;41.55;100320.96;1381624;93;21525;-93
2022/05/17 10:34:02;;;;;;;17.98;5.83;;;;;;;23.26;41.82;100321.71;1362528;94;21757;-94
2022/05/17 10:36:45;;;;;;;9.38;4.35;;;;;;;23.16;42.42;100320.42;1364458;95;21705;-93
2022/05/17 10:39:29;;;;;;;25.10;5.67;;;;;;;23.06;42.93;100317.45;1417717;91;21532;-94
2022/05/17 10:41:55;;;;;;;17.52;6.83;;;;;;;22.96;43.14;100316.69;1362869;94;21550;-93
2022/05/17 10:44:22;;;;;;;8.78;4.25;;;;;;;22.87;43.50;100320.75;1421127;90;21527;-93
2022/05/17 10:46:58;;;;;;;20.05;6.87;;;;;;;22.73;44.48;100324.70;1413859;90;21526;-91
2022/05/17 10:50:04;;;;;;;17.70;8.55;;;;;;;22.36;45.87;100324.80;1408891;90;21453;-93
2022/05/17 10:53:07;;;;;;;29.15;12.05;;;;;;;22.36;45.87;100350.41;1417601;90;21510;-94
2022/05/17 10:55:55;;;;;;;21.27;7.85;;;;;;;22.21;47.70;100325.69;1398207;90;21651;-94
2022/05/17 10:58:33;;;;;;;13.93;7.20;;;;;;;21.95;49.42;100330.34;1432048;90;21586;-92
2022/05/17 11:01:21;;;;;;;74.40;11.73;;;;;;;21.78;50.50;100329.27;1409979;90;21602;-92
2022/05/17 11:04:10;;;;;;;145.70;18.10;;;;;;;21.60;51.66;100330.89;1406947;89;21474;-92
2022/05/17 11:07:21;;;;;;;47.95;10.98;;;;;;;21.45;52.17;100329.09;1428749;90;21660;-93
2022/05/17 11:10:19;;;;;;;64.90;10.40;;;;;;;21.37;53.42;100326.14;1405984;91;21840;-93
2022/05/17 11:12:51;;;;;;;18.55;5.83;;;;;;;21.26;54.51;100327.36;1423404;90;23026;-93
2022/05/17 11:15:25;;;;;;;13.32;7.05;;;;;;;21.15;54.97;100325.70;1426108;90;22443;-93
2022/05/17 11:17:59;;;;;;;12.37;6.30;;;;;;;21.05;56.50;100327.22;1434717;90;21706;-92
2022/05/17 11:20:39;;;;;;;10.32;6.12;;;;;;;20.95;57.60;100325.03;1432588;90;21502;-94
2022/05/17 11:23:42;;;;;;;24.82;8.70;;;;;;;20.78;59.96;100334.67;1415274;89;22911;-93
2022/05/17 11:26:54;;;;;;;21.42;6.67;;;;;;;20.54;62.46;100336.23;1378166;93;22753;-94
2022/05/17 11:30:11;;;;;;;14.47;5.97;;;;;;;20.40;61.42;100332.75;1383541;92;23199;-93
2022/05/17 11:32:45;;;;;;;10.78;6.12;;;;;;;20.35;62.89;100333.94;1431404;90;21538;-92
2022/05/17 11:35:35;;;;;;;13.53;6.85;;;;;;;20.35;63.99;100332.08;1404195;91;23445;-93
2022/05/17 11:38:06;;;;;;;13.30;6.62;;;;;;;20.34;63.50;100327.75;1424056;90;22987;-92
2022/05/17 11:40:52;;;;;;;13.13;6.35;;;;;;;20.35;63.47;100332.59;1416182;90;21532;-93
2022/05/17 11:43:42;;;;;;;16.65;6.08;;;;;;;20.28;64.59;100330.77;1419759;91;21733;-92
2022/05/17 11:46:34;;;;;;;11.73;6.22;;;;;;;20.12;65.94;100334.45;1417262;90;22526;-93
2022/05/17 11:49:27;;;;;;;14.40;6.60;;;;;;;19.97;67.93;100326.66;1422824;90;21523;-93
2022/05/17 11:52:08;;;;;;;21.35;7.30;;;;;;;19.83;69.92;100336.61;1433047;90;21497;-93
2022/05/17 11:54:44;;;;;;;18.10;6.55;;;;;;;19.77;71.07;100342.30;1442109;90;21731;-89